ประเทศบรูไนดารุสซาลาม, Brunei Darussalam

02:49 PM BNT วัน มกราคม 17, 2017 (GMT +0800)
Brunei International | | Change Station

Elev 49 ft 4.93 °N, 114.93 °E | Updated 19 minutes ago

Mostly Cloudy
มีเมฆคลุมเป็นส่วนใหญ่
86 ฟาเรนไฮน์
Feels Like 95 ฟาเรนไฮน์
N
4
ลม ความผันแปร ลม from ทางทิศตะวันตกและทิศตะวันตกเฉียงเหนือ

วันนี้
High -- | Low -- ฟาเรนไฮน์
--% Chance of Precip.
Yesterday
High -- | Low -- ฟาเรนไฮน์
Precip. -- นิ้ว
ความดัน 29.80 นิ้ว
ทัศนวิสัย 6.2 ไมล์
เมฆ มีเมฆคลุมเป็นบางส่วน 1500 ft
Few 1600 ft
มีเมฆคลุมเป็นส่วนใหญ่ 14000 ft
ดัชนีความร้อน 95 ฟาเรนไฮน์
อุณหภูมิที่อากาศอาจจับตัวเป็นหยาดน้ำค้าง 75 ฟาเรนไฮน์
ความชื้น 70%
Rainfall 0.00 นิ้ว
Snow Depth Not available.
6:34 AM 6:26 PM
ข้างแรม, 75% visible
METAR WBSB 170630Z 29003KT 9999 SCT015 FEW016CB BKN140 30/24 Q1009 RESHRA NOSIG
ความดัน 29.80 นิ้ว
ทัศนวิสัย 6.2 ไมล์
เมฆ มีเมฆคลุมเป็นบางส่วน 1500 ft
Few 1600 ft
มีเมฆคลุมเป็นส่วนใหญ่ 14000 ft
ดัชนีความร้อน 95 ฟาเรนไฮน์
อุณหภูมิที่อากาศอาจจับตัวเป็นหยาดน้ำค้าง 75 ฟาเรนไฮน์
ความชื้น 70%
Rainfall 0.00 นิ้ว
Snow Depth Not available.
6:34 AM 6:26 PM
ข้างแรม, 75% visible
METAR WBSB 170630Z 29003KT 9999 SCT015 FEW016CB BKN140 30/24 Q1009 RESHRA NOSIG

Get Your Daily Forecast Email!

Thanks for signing up!

Be on the lookout for a verification email in your inbox.

You'll start receiving the daily forecast at 8 AM.

×

10-Day Weather Forecast

×

Almanac

ดาราศาสตร์

Jan. 17, 2017 Rise Set
Actual Time
Civil Twilight
Nautical Twilight
Astronomical Twilight
Moon
Length Of Visible Light
ความยาวของวัน
Tomorrow will be .
, % of the Moon is Illuminated

Today's Extremes

Country Highs Country Lows

Community

WunderPhotos

Upload Photos

1,962,540 photos uploaded!

WunderBlog® & News

Nearby

Air Quality

  Air Quality AQ Index Pollutant
Not available.

Snow Depth

Station Depth Elevation

Earthquake Activity

City Distance Mag. Time & Date
Minimum magnitude displayed is 2.5.

Coastal Water Temperatures

สถานที่ อุณหภูมิ

Stations

Nearby Weather Stations

Station Location Temp ลมหนาว อุณหภูมิที่อากาศอาจจับตัวเป็นหยาดน้ำค้าง ความชื้น ลม Precip. Elev ปรับปรุงล่าสุด Type